This demonstration page uses our WeatherBlox Daily Observations layout. Learn more.

39.29038, -76.61219

Hourly Observations for June 24, 2019

Temp ( °F °C ) Dew Point ( °F °C ) Humidity (%) Winds ( mph kmh ) Pressure ( in mb ) Visibility ( mi km ) Precip ( " mm )
12:54 am 00:54 undefined 73 22.8 57 13.9 57 57 undefined N/A 29.91 1013 N/A 0 0
1:54 am 01:54 undefined 71 21.7 57 13.9 61 61 undefined N/A 29.88 1012 N/A 0 0
2:54 am 02:54 undefined 70 21.1 58 14.4 66 66 undefined N/A 29.88 1012 N/A 0 0
3:54 am 03:54 undefined 70 21.1 58 14.4 66 66 undefined N/A 29.88 1012 N/A 0 0
4:54 am 04:54 undefined 70 21.1 58 14.4 66 66 undefined N/A 29.88 1012 N/A 0 0
5:54 am 05:54 undefined 70 21.1 60 15.6 71 71 undefined N/A 29.88 1012 N/A 0 0
6:54 am 06:54 undefined 73 22.8 61 16.1 66 66 undefined N/A 29.88 1012 N/A 0 0
7:54 am 07:54 undefined 74 23.3 61 16.1 64 64 undefined N/A 29.88 1012 N/A 0 0
8:54 am 08:54 undefined 77 25 62 16.7 60 60 undefined N/A 29.88 1012 N/A 0 0
9:54 am 09:54 undefined 79 26.1 63 17.2 58 58 undefined N/A 29.88 1012 N/A 0 0
10:54 am 10:54 undefined 81 27.2 63 17.2 54 54 undefined N/A 29.88 1012 N/A 0 0
11:54 am 11:54 undefined 85 29.4 65 18.3 51 51 undefined N/A 29.85 1011 N/A 0 0
12:54 pm 12:54 undefined 85 29.4 67 19.4 55 55 undefined N/A 29.85 1011 N/A 0 0
1:54 pm 13:54 undefined 87 30.6 69 20.6 55 55 undefined N/A 29.83 1010 N/A 0 0
2:54 pm 14:54 undefined 87 30.6 71 21.7 59 59 undefined N/A 29.83 1010 N/A 0 0
3:54 pm 15:54 undefined 85 29.4 70 21.1 61 61 undefined N/A 29.83 1010 N/A 0 0
4:54 pm 16:54 undefined 86 30 72 22.2 63 63 undefined N/A 29.83 1010 N/A 0 0
5:54 pm 17:54 undefined 85 29.4 72 22.2 65 65 undefined N/A 29.8 1009 N/A 0 0
6:54 pm 18:54 undefined 84 28.9 72 22.2 67 67 undefined N/A 29.8 1009 N/A 0 0
7:54 pm 19:54 undefined 84 28.9 72 22.2 67 67 undefined N/A 29.8 1009 N/A 0 0
8:54 pm 20:54 undefined 82 27.8 71 21.7 69 69 undefined N/A 29.8 1009 N/A 0 0
9:54 pm 21:54 undefined 80 26.7 71 21.7 74 74 undefined N/A 29.8 1009 N/A 0 0
10:54 pm 22:54 undefined 79 26.1 72 22.2 79 79 undefined N/A 29.8 1009 N/A 0 0
11:54 pm 23:54 undefined 78 25.6 73 22.8 85 85 undefined N/A 29.8 1009 N/A 0 0

Powered by AerisWeather